logo
Rechercher aéroport 
image banner adimage banner adimage banner ad
image banner ad

FAUH - Uitenhage

Situé à Uitenhage, South Africa

ICAO - FAUH, IATA -

Données fournies par Airmate  

Information générale

Coordonnées: S33°46'60" E25°22'60"
Élévation : 285 feet MSL.
 
Voir autres Aéroports à Eastern Cape

Données opérationnelles

Special qualification required
Heure actuelle UTC:
Heure actuelle locale:
TAF: TAF FAPE 172200Z 1800/1824 VRB03KT CAVOK TX21/1812Z TN13/1804Z BECMG 1812/1814 09011KT BECMG 1821/1823 03005KT
Voir NOTAMs / SUP AIP / TFR affectant cet aéroport [VIEW]
Fréquences de communication: [VIEW]

Pistes:

Identifiant RWYQFULongueur (ft)Largeur (ft)SurfaceLDA (ft)
08262582UNK
26262582UNK
1600UNK
3400UNK

Coordonnées de l'aéroport

Adresse: Uitenhage South Africa

Vue satellite de FAUH